createdAt,value
2022-12-11T00:01:32.833Z,-2.20
2022-12-11T00:03:59.606Z,-2.20
2022-12-11T00:06:26.700Z,-2.20
2022-12-11T00:08:54.361Z,-2.20
2022-12-11T00:11:21.522Z,-2.30
2022-12-11T00:13:48.333Z,-2.30
2022-12-11T00:16:15.307Z,-2.30
2022-12-11T00:18:42.254Z,-2.30
2022-12-11T00:21:11.502Z,-2.30
2022-12-11T00:23:38.321Z,-2.30
2022-12-11T00:26:07.038Z,-2.30
2022-12-11T00:28:33.978Z,-2.40
2022-12-11T00:31:06.923Z,-2.30
2022-12-11T00:33:33.697Z,-2.30
2022-12-11T00:36:00.418Z,-2.40
2022-12-11T00:38:27.484Z,-2.40
2022-12-11T00:40:58.625Z,-2.40
2022-12-11T00:43:25.320Z,-2.40
2022-12-11T00:45:52.180Z,-2.40
2022-12-11T00:48:18.941Z,-2.40
2022-12-11T00:50:45.629Z,-2.50
2022-12-11T00:53:12.393Z,-2.50
2022-12-11T00:55:40.309Z,-2.30
2022-12-11T00:58:07.177Z,-2.40
2022-12-11T01:00:34.084Z,-2.40
2022-12-11T01:03:00.959Z,-2.50
2022-12-11T01:05:27.819Z,-2.50
2022-12-11T01:07:54.582Z,-2.50
2022-12-11T01:10:24.455Z,-2.50
2022-12-11T01:12:59.250Z,-2.50
2022-12-11T01:15:28.467Z,-2.50
2022-12-11T01:17:55.335Z,-2.60
2022-12-11T01:20:22.633Z,-2.60
2022-12-11T01:22:53.570Z,-2.60
2022-12-11T01:25:20.324Z,-2.60
2022-12-11T01:27:47.099Z,-2.70
2022-12-11T01:30:14.451Z,-2.70
2022-12-11T01:32:41.215Z,-2.70
2022-12-11T01:35:08.502Z,-2.70
2022-12-11T01:37:35.393Z,-2.70
2022-12-11T01:40:02.211Z,-2.70
2022-12-11T01:42:31.977Z,-2.70
2022-12-11T01:45:27.394Z,-2.70
2022-12-11T01:48:00.898Z,-2.70
2022-12-11T01:50:28.462Z,-2.70
2022-12-11T01:52:55.223Z,-2.60
2022-12-11T01:55:22.069Z,-2.70
2022-12-11T01:57:49.414Z,-2.70
2022-12-11T02:00:16.591Z,-2.70
2022-12-11T02:02:43.820Z,-2.70
2022-12-11T02:05:10.875Z,-2.80
2022-12-11T02:07:50.627Z,-2.70
2022-12-11T02:10:17.556Z,-2.70
2022-12-11T02:12:50.171Z,-2.70
2022-12-11T02:15:41.070Z,-2.70
2022-12-11T02:18:13.868Z,-2.70
2022-12-11T02:21:05.590Z,-2.70
2022-12-11T02:23:56.253Z,-2.80
2022-12-11T02:26:36.866Z,-2.70
2022-12-11T02:29:07.081Z,-2.80
2022-12-11T02:31:39.983Z,-2.80
2022-12-11T02:34:20.727Z,-2.80
2022-12-11T02:36:51.622Z,-2.90
2022-12-11T02:39:18.368Z,-2.90
2022-12-11T02:41:47.990Z,-2.90
2022-12-11T02:44:15.151Z,-3.00
2022-12-11T02:46:41.981Z,-3.00
2022-12-11T02:49:08.673Z,-2.90
2022-12-11T02:51:38.491Z,-2.90
2022-12-11T02:54:05.976Z,-2.90
2022-12-11T02:56:42.450Z,-2.90
2022-12-11T02:59:17.189Z,-2.90
2022-12-11T03:01:44.009Z,-2.80
2022-12-11T03:04:10.787Z,-2.90
2022-12-11T03:06:46.722Z,-2.90
2022-12-11T03:09:13.498Z,-2.80
2022-12-11T03:11:40.208Z,-2.90
2022-12-11T03:14:06.988Z,-2.90
2022-12-11T03:16:37.202Z,-2.90
2022-12-11T03:19:21.814Z,-2.80
2022-12-11T03:21:58.147Z,-2.90
2022-12-11T03:24:39.740Z,-2.90
2022-12-11T03:27:32.173Z,-2.90
2022-12-11T03:30:01.434Z,-2.90
2022-12-11T03:32:29.952Z,-2.90
2022-12-11T03:35:17.334Z,-2.90
2022-12-11T03:37:44.023Z,-3.00
2022-12-11T03:40:12.601Z,-3.00
2022-12-11T03:42:39.585Z,-3.00
2022-12-11T03:45:06.869Z,-3.00
2022-12-11T03:47:33.632Z,-3.00
2022-12-11T03:50:00.357Z,-3.10
2022-12-11T03:52:27.624Z,-3.20
2022-12-11T03:54:54.781Z,-3.10
2022-12-11T03:57:22.541Z,-3.10
2022-12-11T03:59:49.745Z,-3.00
2022-12-11T04:02:16.498Z,-3.20
2022-12-11T04:04:43.696Z,-3.10
2022-12-11T04:07:10.428Z,-3.10
2022-12-11T04:09:37.605Z,-3.20
2022-12-11T04:12:04.441Z,-3.00
2022-12-11T04:14:49.552Z,-3.10
2022-12-11T04:17:36.251Z,-3.20
2022-12-11T04:20:22.513Z,-3.10
2022-12-11T04:23:08.050Z,-3.20
2022-12-11T04:25:34.860Z,-3.20
2022-12-11T04:28:01.587Z,-3.30
2022-12-11T04:30:33.909Z,-3.30
2022-12-11T04:33:01.234Z,-3.30
2022-12-11T04:35:28.077Z,-3.40
2022-12-11T04:37:54.794Z,-3.40
2022-12-11T04:40:21.674Z,-3.40
2022-12-11T04:42:48.450Z,-3.40
2022-12-11T04:45:15.199Z,-3.30
2022-12-11T04:47:42.042Z,-3.00
2022-12-11T04:50:10.088Z,-3.30
2022-12-11T04:52:36.848Z,-3.20
2022-12-11T04:55:05.622Z,-3.20
2022-12-11T04:57:32.389Z,-3.40
2022-12-11T04:59:59.992Z,-3.30
2022-12-11T05:02:26.936Z,-3.40
2022-12-11T05:04:53.770Z,-3.30
2022-12-11T05:07:20.505Z,-3.30
2022-12-11T05:09:47.299Z,-3.30
2022-12-11T05:12:14.018Z,-3.30
2022-12-11T05:14:40.834Z,-3.30
2022-12-11T05:17:07.568Z,-3.40
2022-12-11T05:19:34.285Z,-3.30
2022-12-11T05:22:01.068Z,-3.40
2022-12-11T05:24:27.795Z,-3.30
2022-12-11T05:26:54.497Z,-3.30
2022-12-11T05:29:21.226Z,-3.40
2022-12-11T05:31:47.948Z,-3.40
2022-12-11T05:34:15.948Z,-3.40
2022-12-11T05:36:42.632Z,-3.40
2022-12-11T05:39:10.592Z,-3.30
2022-12-11T05:41:37.315Z,-3.40
2022-12-11T05:44:04.173Z,-3.40
2022-12-11T05:46:31.244Z,-3.40
2022-12-11T05:48:59.495Z,-3.40
2022-12-11T05:51:26.549Z,-3.40
2022-12-11T05:53:53.520Z,-3.40
2022-12-11T05:56:26.197Z,-3.40
2022-12-11T05:58:53.001Z,-3.40
2022-12-11T06:01:24.969Z,-3.40
2022-12-11T06:03:51.957Z,-3.40
2022-12-11T06:06:18.742Z,-3.40
2022-12-11T06:08:45.549Z,-3.40
2022-12-11T06:11:14.127Z,-3.40
2022-12-11T06:13:40.894Z,-3.40
2022-12-11T06:16:08.392Z,-3.40
2022-12-11T06:18:39.123Z,-3.50
2022-12-11T06:21:23.325Z,-3.50
2022-12-11T06:23:51.393Z,-3.50
2022-12-11T06:26:19.030Z,-3.50
2022-12-11T06:28:46.156Z,-3.50
2022-12-11T06:31:13.099Z,-3.50
2022-12-11T06:33:42.452Z,-3.50
2022-12-11T06:36:14.512Z,-3.50
2022-12-11T06:38:41.264Z,-3.60
2022-12-11T06:41:08.286Z,-3.50
2022-12-11T06:43:35.933Z,-3.50
2022-12-11T06:46:09.704Z,-3.50
2022-12-11T06:48:36.471Z,-3.60
2022-12-11T06:51:11.138Z,-3.40
2022-12-11T06:53:38.124Z,-3.70
2022-12-11T06:56:12.634Z,-3.60
2022-12-11T06:58:39.562Z,-3.60
2022-12-11T07:01:19.183Z,-3.60
2022-12-11T07:03:46.017Z,-3.60
2022-12-11T07:06:13.000Z,-3.50
2022-12-11T07:08:39.827Z,-3.80
2022-12-11T07:11:07.811Z,-3.50
2022-12-11T07:13:34.649Z,-3.50
2022-12-11T07:16:02.003Z,-3.50
2022-12-11T07:18:28.840Z,-3.50
2022-12-11T07:20:57.415Z,-3.40
2022-12-11T07:23:24.201Z,-3.40
2022-12-11T07:25:51.057Z,-3.40
2022-12-11T07:28:17.737Z,-3.30
2022-12-11T07:30:44.634Z,-3.20
2022-12-11T07:33:11.401Z,-3.20
2022-12-11T07:35:38.214Z,-3.20
2022-12-11T07:38:05.014Z,-3.20
2022-12-11T07:40:31.739Z,-3.10
2022-12-11T07:42:58.485Z,-3.20
2022-12-11T07:45:26.392Z,-3.10
2022-12-11T07:47:53.100Z,-3.10
2022-12-11T07:50:20.111Z,-3.00
2022-12-11T07:52:46.830Z,-3.00
2022-12-11T07:55:13.746Z,-3.00
2022-12-11T07:57:40.664Z,-3.00
2022-12-11T08:00:07.934Z,-3.00
2022-12-11T08:02:37.364Z,-2.90
2022-12-11T08:05:04.848Z,-3.00
2022-12-11T08:07:33.529Z,-3.00
2022-12-11T08:10:00.252Z,-2.90
2022-12-11T08:12:26.920Z,-2.90
2022-12-11T08:14:53.664Z,-2.90
2022-12-11T08:17:24.500Z,-2.80
2022-12-11T08:19:54.200Z,-2.80
2022-12-11T08:22:21.039Z,-2.80
2022-12-11T08:24:47.810Z,-2.80
2022-12-11T08:27:14.562Z,-2.80
2022-12-11T08:29:41.369Z,-2.70
2022-12-11T08:32:12.283Z,-2.70
2022-12-11T08:34:40.045Z,-2.60
2022-12-11T08:37:06.791Z,-2.60
2022-12-11T08:39:33.577Z,-2.60
2022-12-11T08:42:00.274Z,-2.60
2022-12-11T08:44:28.070Z,-2.60
2022-12-11T08:46:54.821Z,-2.50
2022-12-11T08:49:21.555Z,-2.50
2022-12-11T08:51:48.266Z,-2.50
2022-12-11T08:54:14.948Z,-2.50
2022-12-11T08:56:41.670Z,-2.50
2022-12-11T08:59:08.575Z,-2.50
2022-12-11T09:01:35.325Z,-2.60
2022-12-11T09:04:02.178Z,-2.60
2022-12-11T09:06:29.429Z,-2.60
2022-12-11T09:08:56.419Z,-3.00
2022-12-11T09:11:30.508Z,-2.40
2022-12-11T09:13:58.943Z,-2.30
2022-12-11T09:16:29.043Z,-2.60
2022-12-11T09:18:57.136Z,-2.60
2022-12-11T09:21:25.431Z,-2.60
2022-12-11T09:23:56.007Z,-2.70
2022-12-11T09:26:22.995Z,-2.60
2022-12-11T09:28:53.112Z,-2.60
2022-12-11T09:31:23.561Z,-2.50
2022-12-11T09:33:52.049Z,-2.50
2022-12-11T09:36:19.026Z,-2.40
2022-12-11T09:38:46.081Z,-2.40
2022-12-11T09:41:56.190Z,-2.30
2022-12-11T09:44:40.012Z,-2.30
2022-12-11T09:47:35.737Z,-2.20
2022-12-11T09:50:14.067Z,-2.10
2022-12-11T09:52:51.113Z,-2.20
2022-12-11T09:55:24.243Z,-2.10
2022-12-11T09:57:57.816Z,-2.00
2022-12-11T10:00:43.921Z,-1.90
2022-12-11T10:03:25.966Z,-1.80
2022-12-11T10:06:05.279Z,-1.70
2022-12-11T10:08:47.806Z,-1.70
2022-12-11T10:11:32.933Z,-1.70
2022-12-11T10:14:02.477Z,-1.60
2022-12-11T10:16:49.308Z,-1.70
2022-12-11T10:19:29.918Z,-1.70
2022-12-11T10:21:56.832Z,-1.60
2022-12-11T10:27:28.611Z,-1.60
2022-12-11T10:30:05.778Z,-1.60
2022-12-11T10:32:58.467Z,-1.60
2022-12-11T10:35:28.184Z,-1.60
2022-12-11T10:38:20.729Z,-1.60
2022-12-11T10:40:52.681Z,-1.50
2022-12-11T10:43:19.471Z,-1.60
2022-12-11T10:45:55.284Z,-1.50
2022-12-11T10:48:22.323Z,-1.50
2022-12-11T10:51:03.600Z,-1.50
2022-12-11T10:53:30.874Z,-1.00
2022-12-11T10:55:58.626Z,-1.50
2022-12-11T10:58:34.287Z,-1.50
2022-12-11T11:01:06.418Z,-1.40
2022-12-11T11:03:33.454Z,-1.40
2022-12-11T11:06:20.112Z,-1.40
2022-12-11T11:08:49.457Z,-1.40
2022-12-11T11:11:36.956Z,-1.30
2022-12-11T11:14:20.635Z,-1.20
2022-12-11T11:16:48.829Z,-1.30
2022-12-11T11:19:23.278Z,-1.20
2022-12-11T11:21:55.060Z,-1.30
2022-12-11T11:24:33.148Z,-1.30
2022-12-11T11:27:15.226Z,-1.20
2022-12-11T11:29:42.074Z,-1.10
2022-12-11T11:32:16.723Z,-1.20
2022-12-11T11:34:43.483Z,-1.10
2022-12-11T11:37:24.989Z,-1.20
2022-12-11T11:39:53.083Z,-1.20
2022-12-11T11:42:37.271Z,-1.20
2022-12-11T11:45:09.940Z,-1.10
2022-12-11T11:47:43.317Z,-1.00
2022-12-11T11:50:16.377Z,-0.90
2022-12-11T11:52:52.952Z,-0.90
2022-12-11T11:55:37.784Z,-1.00
2022-12-11T11:58:12.887Z,-1.00
2022-12-11T12:00:39.613Z,-1.00
2022-12-11T12:03:11.223Z,-0.90
2022-12-11T12:05:56.891Z,-0.90
2022-12-11T12:08:42.016Z,-0.80
2022-12-11T12:11:37.701Z,-0.80
2022-12-11T12:14:43.580Z,-0.70
2022-12-11T12:17:27.008Z,-0.70
2022-12-11T12:20:06.580Z,-0.60
2022-12-11T12:22:53.649Z,-0.60
2022-12-11T12:25:37.130Z,-0.50
2022-12-11T12:28:16.003Z,-0.40
2022-12-11T12:30:55.314Z,-0.40
2022-12-11T12:33:39.258Z,-0.40
2022-12-11T12:36:08.777Z,-0.40
2022-12-11T12:39:01.271Z,-0.50
2022-12-11T12:41:55.333Z,-0.50
2022-12-11T12:44:22.875Z,-0.60
2022-12-11T12:47:09.766Z,-0.50
2022-12-11T12:49:41.845Z,-0.50
2022-12-11T12:52:21.519Z,-0.50
2022-12-11T12:55:09.722Z,-0.50
2022-12-11T12:57:36.886Z,-0.50
2022-12-11T13:00:11.081Z,-0.50
2022-12-11T13:02:49.358Z,-0.40
2022-12-11T13:05:27.052Z,-0.40
2022-12-11T13:07:59.266Z,-0.40
2022-12-11T13:10:26.267Z,-0.30
2022-12-11T13:12:53.086Z,-0.30
2022-12-11T13:15:40.808Z,-0.30
2022-12-11T13:18:37.005Z,-0.10
2022-12-11T13:21:23.724Z,-0.30
2022-12-11T13:23:50.493Z,-0.30
2022-12-11T13:26:30.958Z,-0.20
2022-12-11T13:28:58.260Z,-0.20
2022-12-11T13:31:36.510Z,-0.20
2022-12-11T13:34:15.941Z,-0.20
2022-12-11T13:36:47.044Z,-0.20
2022-12-11T13:39:37.238Z,-0.20
2022-12-11T13:42:11.876Z,-0.10
2022-12-11T13:44:41.255Z,-0.10
2022-12-11T13:47:12.456Z,-0.10
2022-12-11T13:49:40.838Z,-0.10
2022-12-11T13:52:07.842Z,-0.10
2022-12-11T13:54:36.409Z,-0.10
2022-12-11T13:57:09.257Z,-0.10
2022-12-11T13:59:37.775Z,-0.20
2022-12-11T14:02:26.063Z,-0.20
2022-12-11T14:05:01.044Z,-0.20
2022-12-11T14:07:41.751Z,-0.20
2022-12-11T14:10:14.592Z,-0.20
2022-12-11T14:12:58.532Z,-0.20
2022-12-11T14:15:26.100Z,-0.10
2022-12-11T14:17:52.937Z,-0.10
2022-12-11T14:20:22.780Z,-0.10
2022-12-11T14:22:49.559Z,-0.10
2022-12-11T14:25:24.917Z,-0.10
2022-12-11T14:27:55.687Z,-0.10
2022-12-11T14:30:27.475Z,0.20
2022-12-11T14:32:59.018Z,0.10
2022-12-11T14:35:38.586Z,0.10
2022-12-11T14:38:26.526Z,0.10
2022-12-11T14:40:56.483Z,0.10
2022-12-11T14:43:35.748Z,0.30
2022-12-11T14:46:10.308Z,0.10
2022-12-11T14:48:53.852Z,0.10
2022-12-11T14:51:24.417Z,0.10
2022-12-11T14:53:51.703Z,0.10
2022-12-11T14:56:25.994Z,0.10
2022-12-11T14:59:03.134Z,0.10
2022-12-11T15:01:33.253Z,0.10
2022-12-11T15:04:14.828Z,0.20
2022-12-11T15:06:46.069Z,0.10
2022-12-11T15:09:19.706Z,0.10
2022-12-11T15:11:47.163Z,0.50
2022-12-11T15:14:14.162Z,0.20
2022-12-11T15:16:41.644Z,0.20
2022-12-11T15:19:14.794Z,0.20
2022-12-11T15:21:41.539Z,0.20
2022-12-11T15:24:25.973Z,0.20
2022-12-11T15:26:55.583Z,0.20
2022-12-11T15:29:25.391Z,0.30
2022-12-11T15:32:10.032Z,0.20
2022-12-11T15:34:43.128Z,0.30
2022-12-11T15:37:27.250Z,0.30
2022-12-11T15:39:54.990Z,0.30
2022-12-11T15:42:28.918Z,0.20
2022-12-11T15:44:55.670Z,0.20
2022-12-11T15:47:25.954Z,0.20
2022-12-11T15:50:00.296Z,0.20
2022-12-11T15:52:27.055Z,0.20
2022-12-11T15:54:53.918Z,0.20
2022-12-11T15:57:21.665Z,0.20
2022-12-11T15:59:49.013Z,0.20
2022-12-11T16:02:15.822Z,0.20
2022-12-11T16:04:42.635Z,0.20
2022-12-11T16:07:17.419Z,0.30
2022-12-11T16:09:44.952Z,0.40
2022-12-11T16:12:12.030Z,0.30
2022-12-11T16:14:39.226Z,0.30
2022-12-11T16:17:09.778Z,0.40
2022-12-11T16:19:37.654Z,0.40
2022-12-11T16:22:04.645Z,0.40
2022-12-11T16:24:31.774Z,0.40
2022-12-11T16:26:58.485Z,0.40
2022-12-11T16:29:25.252Z,0.40
2022-12-11T16:31:52.025Z,0.40
2022-12-11T16:34:18.853Z,0.40
2022-12-11T16:36:45.604Z,0.50
2022-12-11T16:39:13.164Z,0.50
2022-12-11T16:41:40.248Z,0.50
2022-12-11T16:44:10.813Z,0.50
2022-12-11T16:46:37.585Z,0.50
2022-12-11T16:49:07.361Z,0.60
2022-12-11T16:51:35.897Z,0.60
2022-12-11T16:54:03.409Z,0.60
2022-12-11T16:56:33.256Z,0.60
2022-12-11T16:59:01.427Z,0.60
2022-12-11T17:01:28.468Z,0.60
2022-12-11T17:03:55.326Z,0.60
2022-12-11T17:06:24.666Z,0.60
2022-12-11T17:08:51.509Z,0.60
2022-12-11T17:11:20.389Z,0.60
2022-12-11T17:13:47.302Z,0.60
2022-12-11T17:16:15.683Z,0.60
2022-12-11T17:18:42.815Z,0.60
2022-12-11T17:21:14.128Z,0.70
2022-12-11T17:23:41.169Z,0.70
2022-12-11T17:26:10.879Z,0.70
2022-12-11T17:28:37.773Z,0.70
2022-12-11T17:31:05.597Z,0.60
2022-12-11T17:33:32.385Z,0.70
2022-12-11T17:36:05.779Z,0.70
2022-12-11T17:38:32.624Z,0.70
2022-12-11T17:40:59.397Z,0.70
2022-12-11T17:43:26.455Z,0.80
2022-12-11T17:45:53.296Z,0.70
2022-12-11T17:48:22.568Z,0.70
2022-12-11T17:50:49.924Z,0.80
2022-12-11T17:53:17.168Z,0.80
2022-12-11T17:55:44.306Z,0.80
2022-12-11T17:58:18.839Z,0.80
2022-12-11T18:00:46.908Z,0.80
2022-12-11T18:03:14.003Z,0.80
2022-12-11T18:05:45.307Z,0.90
2022-12-11T18:08:16.692Z,0.90
2022-12-11T18:10:43.677Z,0.90
2022-12-11T18:13:10.516Z,0.90
2022-12-11T18:15:37.671Z,0.90
2022-12-11T18:18:05.400Z,0.80
2022-12-11T18:20:32.725Z,0.90
2022-12-11T18:22:59.816Z,0.80
2022-12-11T18:25:26.710Z,0.90
2022-12-11T18:27:55.170Z,0.90
2022-12-11T18:30:22.865Z,0.90
2022-12-11T18:32:49.966Z,0.90
2022-12-11T18:35:16.994Z,0.90
2022-12-11T18:37:43.925Z,0.90
2022-12-11T18:40:12.017Z,0.90
2022-12-11T18:42:38.880Z,0.90
2022-12-11T18:45:06.982Z,0.90
2022-12-11T18:47:33.728Z,0.90
2022-12-11T18:50:07.092Z,0.90
2022-12-11T18:52:34.407Z,0.90
2022-12-11T18:55:01.140Z,0.90
2022-12-11T18:57:27.949Z,0.90
2022-12-11T18:59:54.696Z,0.90
2022-12-11T19:02:21.562Z,0.90
2022-12-11T19:04:48.644Z,0.90
2022-12-11T19:07:15.459Z,0.90
2022-12-11T19:09:47.567Z,0.80
2022-12-11T19:12:15.002Z,0.80
2022-12-11T19:14:41.849Z,0.80
2022-12-11T19:17:08.624Z,0.80
2022-12-11T19:19:35.974Z,0.80
2022-12-11T19:22:02.816Z,1.00
2022-12-11T19:24:29.623Z,0.80
2022-12-11T19:26:56.387Z,0.80
2022-12-11T19:29:27.893Z,0.80
2022-12-11T19:31:55.639Z,0.80
2022-12-11T19:34:22.762Z,0.80
2022-12-11T19:36:49.651Z,0.80
2022-12-11T19:39:16.461Z,0.70
2022-12-11T19:41:43.337Z,0.80
2022-12-11T19:44:10.281Z,0.80
2022-12-11T19:46:37.234Z,0.80
2022-12-11T19:49:04.096Z,0.80
2022-12-11T19:51:38.327Z,0.80
2022-12-11T19:54:06.665Z,1.00
2022-12-11T19:56:34.352Z,0.80
2022-12-11T19:59:05.189Z,0.80
2022-12-11T20:01:32.938Z,0.80
2022-12-11T20:04:05.047Z,0.80
2022-12-11T20:06:32.571Z,0.70
2022-12-11T20:08:59.775Z,0.70
2022-12-11T20:11:26.605Z,0.70
2022-12-11T20:13:55.510Z,0.70
2022-12-11T20:16:39.524Z,0.70
2022-12-11T20:19:09.265Z,0.70
2022-12-11T20:21:35.970Z,0.70
2022-12-11T20:24:02.735Z,0.80
2022-12-11T20:26:31.884Z,0.60
2022-12-11T20:28:58.763Z,0.70
2022-12-11T20:31:25.883Z,0.60
2022-12-11T20:33:53.366Z,0.60
2022-12-11T20:36:20.922Z,0.60
2022-12-11T20:38:48.027Z,0.50
2022-12-11T20:41:16.292Z,0.50
2022-12-11T20:43:44.098Z,0.50
2022-12-11T20:46:12.354Z,0.40
2022-12-11T20:48:39.397Z,0.30
2022-12-11T20:51:07.106Z,0.30
2022-12-11T20:53:35.004Z,0.30
2022-12-11T20:56:02.085Z,0.50
2022-12-11T20:58:28.919Z,0.30
2022-12-11T21:00:55.822Z,0.30
2022-12-11T21:03:22.716Z,0.20
2022-12-11T21:05:49.453Z,0.20
2022-12-11T21:08:16.248Z,0.20
2022-12-11T21:10:43.857Z,0.20
2022-12-11T21:13:10.741Z,0.20
2022-12-11T21:15:38.334Z,0.20
2022-12-11T21:18:05.921Z,0.20
2022-12-11T21:20:32.813Z,0.20
2022-12-11T21:22:59.571Z,0.10
2022-12-11T21:25:26.426Z,0.10
2022-12-11T21:27:53.184Z,0.10
2022-12-11T21:30:20.033Z,0.10
2022-12-11T21:32:47.551Z,0.10
2022-12-11T21:35:14.660Z,0.10
2022-12-11T21:37:41.925Z,0.10
2022-12-11T21:40:09.406Z,0.00
2022-12-11T21:42:36.146Z,0.10
2022-12-11T21:47:50.398Z,0.10
2022-12-11T21:50:17.491Z,0.10
2022-12-11T21:52:44.289Z,0.20
2022-12-11T21:55:11.786Z,0.10
2022-12-11T21:57:38.694Z,0.10
2022-12-11T22:00:06.078Z,0.20
2022-12-11T22:02:36.066Z,0.10
2022-12-11T22:05:07.833Z,0.10
2022-12-11T22:07:34.594Z,0.10
2022-12-11T22:10:01.334Z,0.10
2022-12-11T22:12:28.302Z,0.20
2022-12-11T22:14:55.389Z,0.10
2022-12-11T22:17:22.290Z,0.10
2022-12-11T22:19:49.201Z,0.10
2022-12-11T22:22:15.944Z,0.10
2022-12-11T22:24:42.696Z,0.20
2022-12-11T22:27:09.438Z,0.20
2022-12-11T22:29:36.194Z,0.20
2022-12-11T22:32:03.618Z,0.20
2022-12-11T22:34:30.465Z,0.20
2022-12-11T22:36:57.140Z,0.50
2022-12-11T22:39:24.741Z,0.20
2022-12-11T22:41:51.509Z,0.20
2022-12-11T22:44:19.487Z,0.40
2022-12-11T22:46:49.952Z,0.20
2022-12-11T22:49:18.747Z,0.20
2022-12-11T22:51:45.519Z,0.10
2022-12-11T22:54:12.346Z,0.10
2022-12-11T22:56:39.053Z,0.10
2022-12-11T22:59:07.480Z,0.10
2022-12-11T23:01:34.530Z,0.10
2022-12-11T23:04:01.392Z,0.10
2022-12-11T23:06:30.990Z,0.10
2022-12-11T23:08:58.934Z,0.10
2022-12-11T23:11:30.889Z,0.10
2022-12-11T23:14:00.762Z,0.10
2022-12-11T23:16:28.056Z,0.10
2022-12-11T23:18:55.524Z,0.10
2022-12-11T23:21:22.675Z,0.10
2022-12-11T23:23:49.418Z,0.10
2022-12-11T23:26:16.510Z,0.20
2022-12-11T23:28:43.234Z,0.10
2022-12-11T23:31:10.090Z,0.20
2022-12-11T23:33:37.050Z,0.30
2022-12-11T23:36:04.357Z,0.10
2022-12-11T23:38:31.199Z,0.10
2022-12-11T23:40:59.474Z,0.10
2022-12-11T23:43:26.226Z,0.10
2022-12-11T23:45:52.998Z,0.10
2022-12-11T23:48:19.840Z,0.10
2022-12-11T23:50:46.814Z,0.10
2022-12-11T23:53:13.602Z,0.10
2022-12-11T23:55:41.425Z,0.20
2022-12-11T23:58:08.219Z,0.20
